Welcome to Des Moines Iowa Weather. I am an independent private personal weather station on the Northwest Side of Des Moines, Iowa. Just East of Windsor Heights and just West of Glendale . This site is also mobile friendly.

There are no active watches, warnings or advisories


Visit our other weather sites:

Historical Data

Weather Station Setup



Weather Underground History page Text

Daily Summary for December 12, 2017 Units:  English    Metric   Both
« Previous Day
Next Day »
Daily Weekly Monthly Yearly Custom
  High: Low: Average:
Temperature: 32.1 °F 14.0 °F 23.1 °F
Dew Point: 23.0 °F 9.0 °F 14.5 °F
Humidity: 82 % 51 % 71 %
Wind Speed: 8.0 mph 0.0 mph 1.8 mph
Wind Gust: 14.0 mph - -
Wind:- - West
Pressure: 30.32 in 29.80 in -
Precipitation: 0.00 in    
Historical Graphs
 
 
Tabular Data for December 12, 2017
Time Temperature Dew Point Pressure Wind Wind Speed Wind Gust Humidity Rainfall Rate (Hourly)
00:00 22.6 °F 15.9 °F 30.27 in North 4.0 mph 10.0 mph 75 % 0.00 in
00:05 22.6 °F 15.9 °F 30.27 in North 4.0 mph 10.0 mph 75 % 0.00 in
00:10 21.1 °F 15.0 °F 30.28 in North 8.0 mph 12.0 mph 76 % 0.00 in
00:25 20.4 °F 14.0 °F 30.28 in North 3.0 mph 10.0 mph 77 % 0.00 in
00:40 20.0 °F 14.0 °F 30.29 in North 2.0 mph 11.0 mph 78 % 0.00 in
00:55 19.5 °F 14.0 °F 30.28 in North 8.0 mph 11.0 mph 79 % 0.00 in
01:10 19.0 °F 14.0 °F 30.28 in NNE 3.0 mph 14.0 mph 79 % 0.00 in
01:26 18.6 °F 13.0 °F 30.29 in North 3.0 mph 10.0 mph 79 % 0.00 in
01:40 18.2 °F 13.0 °F 30.29 in North 3.0 mph 11.0 mph 80 % 0.00 in
01:56 17.9 °F 13.0 °F 30.29 in Calm   8.0 mph 80 % 0.00 in
02:26 17.2 °F 12.0 °F 30.30 in North 4.0 mph 9.0 mph 81 % 0.00 in
02:41 16.9 °F 12.0 °F 30.30 in North 5.0 mph 11.0 mph 80 % 0.00 in
03:26 16.2 °F 11.0 °F 30.30 in North 2.0 mph 11.0 mph 79 % 0.00 in
03:41 16.0 °F 11.0 °F 30.30 in North 4.0 mph 8.0 mph 79 % 0.00 in
03:56 15.7 °F 10.0 °F 30.30 in North 8.0 mph 9.0 mph 79 % 0.00 in
04:26 15.4 °F 10.0 °F 30.30 in Calm   11.0 mph 78 % 0.00 in
04:41 15.3 °F 10.0 °F 30.30 in North 3.0 mph 8.0 mph 78 % 0.00 in
04:56 15.2 °F 10.0 °F 30.30 in Calm   14.0 mph 78 % 0.00 in
05:11 15.4 °F 9.0 °F 30.31 in North 3.0 mph 13.0 mph 77 % 0.00 in
05:26 15.4 °F 9.0 °F 30.31 in North 5.0 mph 11.0 mph 77 % 0.00 in
05:56 15.1 °F 9.0 °F 30.30 in North 2.0 mph 9.0 mph 78 % 0.00 in
06:26 14.8 °F 9.0 °F 30.31 in North 1.0 mph 6.0 mph 79 % 0.00 in
06:56 14.4 °F 9.0 °F 30.32 in North 2.0 mph 6.0 mph 80 % 0.00 in
07:12 14.3 °F 9.0 °F 30.32 in Calm   5.0 mph 80 % 0.00 in
07:26 14.3 °F 10.0 °F 30.32 in North 3.0 mph 5.0 mph 81 % 0.00 in
07:41 14.1 °F 9.0 °F 30.31 in North 2.0 mph 5.0 mph 81 % 0.00 in
07:56 14.0 °F 9.0 °F 30.32 in Calm   5.0 mph 81 % 0.00 in
08:42 14.8 °F 10.0 °F 30.32 in Calm   8.0 mph 82 % 0.00 in
08:56 15.8 °F 11.0 °F 30.32 in North 4.0 mph 6.0 mph 82 % 0.00 in
09:12 16.3 °F 11.0 °F 30.32 in Calm   10.0 mph 81 % 0.00 in
09:26 16.9 °F 12.0 °F 30.32 in North 8.0 mph 10.0 mph 80 % 0.00 in
09:41 17.7 °F 12.0 °F 30.31 in North 2.0 mph 6.0 mph 79 % 0.00 in
09:56 18.7 °F 12.0 °F 30.32 in North 3.0 mph 8.0 mph 75 % 0.00 in
10:11 19.1 °F 12.0 °F 30.32 in North 2.0 mph 8.0 mph 74 % 0.00 in
10:26 20.4 °F 12.0 °F 30.32 in North 1.0 mph 8.0 mph 71 % 0.00 in
10:42 20.8 °F 11.0 °F 30.32 in Calm   9.0 mph 67 % 0.00 in
10:57 21.7 °F 12.0 °F 30.31 in North 2.0 mph 6.0 mph 67 % 0.00 in
11:27 23.1 °F 11.0 °F 30.28 in Calm   9.0 mph 61 % 0.00 in
11:42 23.7 °F 11.0 °F 30.27 in Calm   5.0 mph 59 % 0.00 in
11:57 25.5 °F 12.0 °F 30.26 in Calm   4.0 mph 57 % 0.00 in
12:13 26.6 °F 12.0 °F 30.24 in North 3.0 mph 3.0 mph 55 % 0.00 in
12:27 27.4 °F 12.0 °F 30.23 in North 1.0 mph 6.0 mph 52 % 0.00 in
12:42 28.9 °F 13.0 °F 30.22 in NNE 2.0 mph 4.0 mph 51 % 0.00 in
12:57 29.4 °F 13.0 °F 30.21 in North 4.0 mph 5.0 mph 51 % 0.00 in
13:12 30.2 °F 14.0 °F 30.21 in NNE 2.0 mph 4.0 mph 51 % 0.00 in
13:27 30.3 °F 14.0 °F 30.20 in North 2.0 mph 8.0 mph 52 % 0.00 in
13:42 31.4 °F 15.0 °F 30.19 in North 2.0 mph 6.0 mph 52 % 0.00 in
13:58 31.4 °F 16.0 °F 30.18 in North 1.0 mph 4.0 mph 53 % 0.00 in
14:13 31.4 °F 16.0 °F 30.17 in North 1.0 mph 5.0 mph 53 % 0.00 in
14:27 31.6 °F 16.0 °F 30.16 in North 3.0 mph 6.0 mph 53 % 0.00 in
14:43 31.9 °F 15.0 °F 30.15 in North 2.0 mph 8.0 mph 51 % 0.00 in
15:13 31.6 °F 17.0 °F 30.13 in Calm   3.0 mph 55 % 0.00 in
15:27 31.8 °F 18.0 °F 30.13 in Calm   2.0 mph 57 % 0.00 in
15:58 32.1 °F 19.0 °F 30.11 in North 2.0 mph 4.0 mph 58 % 0.00 in
16:13 31.7 °F 19.0 °F 30.11 in Calm   1.0 mph 60 % 0.00 in
16:28 31.6 °F 20.0 °F 30.11 in Calm     62 % 0.00 in
16:43 31.3 °F 20.0 °F 30.09 in Calm   3.0 mph 63 % 0.00 in
17:13 30.5 °F 20.0 °F 30.06 in Calm     65 % 0.00 in
17:43 29.8 °F 20.0 °F 30.06 in Calm     68 % 0.00 in
17:58 29.5 °F 20.0 °F 30.05 in Calm     69 % 0.00 in
18:13 29.2 °F 21.0 °F 30.05 in Calm     70 % 0.00 in
18:43 28.8 °F 20.0 °F 30.03 in Calm     71 % 0.00 in
19:13 28.4 °F 21.0 °F 30.03 in Calm   2.0 mph 73 % 0.00 in
19:28 28.3 °F 21.0 °F 30.02 in Calm     73 % 0.00 in
20:43 27.6 °F 21.0 °F 29.97 in Calm   4.0 mph 75 % 0.00 in
20:58 27.6 °F 21.0 °F 29.96 in Calm   2.0 mph 76 % 0.00 in
21:15 27.5 °F 21.0 °F 29.95 in Calm     76 % 0.00 in
21:28 27.7 °F 22.0 °F 29.94 in Calm   3.0 mph 78 % 0.00 in
21:58 28.1 °F 22.0 °F 29.91 in Calm   6.0 mph 77 % 0.00 in
22:29 28.5 °F 22.0 °F 29.88 in Calm   3.0 mph 78 % 0.00 in
23:29 28.6 °F 23.0 °F 29.83 in SSE 1.0 mph 3.0 mph 78 % 0.00 in
23:59 28.8 °F 23.0 °F 29.80 in SSE 1.0 mph 3.0 mph 79 % 0.00 in
Des Moines Weather and Climate
Compliments of Weather Underground - 2.75 mb

Script developed by  Jim McMurry - jmcmurry@mwt.net Adapted for the template by  Wim van der Kuil - Leuven-Template.eu

You find our weather info also at:

Weather Underground

Equipment we use:

Weather-station
Davis VP2 Plus

Weather-program
Davis Weatherlink.Com

Weather-server
iMac (Retina 4K, 21.5-inch, Late 2015)

Provider
Hostmonster.com

Davis VP2 Plus

Davis Weatherlink.Com

iMac (Retina 4K, 21.5-inch, Late 2015)

Hostmonster.com